Swift Arrow — WAFK — position and weather

sailwx.info

Track history (hours):
 
Tides and Currents Weather Stations Pressure Air Temp Water Temp Dewpoint Dewpoint Depression Visibility Wind Speed Wind Dir Waves Ship Positions

Swift Arrow

Owner: ARROW LAUNCH SERVICE INC, Port Angeles, WA. More information available from US FCC via Universal Licensing System and Coast Guard Vessel Documentation Center.

Last reported at 2018-Mar-24 20:12 UTC. Time now 2018-Apr-22 04:48 UTC.
Position N 47°16' W 122°26'.
Warning: this ship's position is 28 days out of date.

Type: Port tender. MMSI: 369021000.

Date/timePositionNaut miles runAvg speedWind from/ knotsBaromVisibWave heightAir tempDewpointWater temp
2018-Mar-24 20:12N 47°16' W 122°26'312.9
2018-Mar-24 19:59N 47°18' W 122°27'2 4.4
2018-Mar-24 19:30N 47°20' W 122°29'0 0.1
2018-Mar-24 18:58N 47°20' W 122°29'0 0.2
2018-Mar-24 18:24N 47°20' W 122°29'0 0.5
2018-Mar-24 17:57N 47°20' W 122°28'3 6.8
2018-Mar-24 17:30N 47°17' W 122°27'2 0.1
2018-Mar-23 23:03N 47°16' W 122°26'010.2
2018-Mar-23 23:00N 47°16' W 122°26'  
2018-Mar-21 17:58N 47°15' W 122°26'2 3.6
2018-Mar-21 17:30N 47°17' W 122°26'2 1.8
2018-Mar-21 16:36N 47°15' W 122°26'0 0.3
2018-Mar-21 15:58N 47°16' W 122°26'1 3.0
2018-Mar-21 15:30N 47°17' W 122°26'1 2.7
2018-Mar-21 15:00N 47°16' W 122°26'0 0.0
2018-Mar-19 23:07N 47°15' W 122°26'1 7.3
2018-Mar-19 23:00N 47°16' W 122°26'3 6.5
2018-Mar-19 22:30N 47°18' W 122°30'1 2.6
2018-Mar-19 22:01N 47°17' W 122°29'3 0.4
2018-Mar-19 14:42N 47°15' W 122°26'2 7.6
2018-Mar-19 14:29N 47°17' W 122°26'2 0.1
2018-Mar-19 02:33N 47°15' W 122°26'0 5.0
2018-Mar-19 02:29N 47°16' W 122°26'3 5.4
2018-Mar-19 02:01N 47°18' W 122°28'3 1.9
2018-Mar-19 00:32N 47°16' W 122°25'0 0.9
2018-Mar-19 00:29N 47°17' W 122°25'1 1.0
2018-Mar-18 23:46N 47°17' W 122°26'1 3.3
2018-Mar-18 23:30N 47°16' W 122°26'1 0.0
2018-Mar-16 20:31N 47°15' W 122°26'0 6.1
2018-Mar-16 20:29N 47°15' W 122°26'510.6
2018-Mar-16 20:01N 47°20' W 122°29'510.6
2018-Mar-16 19:30N 47°15' W 122°26'510.5
2018-Mar-16 19:00N 47°20' W 122°29'5 9.5
2018-Mar-16 18:31N 47°16' W 122°26'0 0.1
2018-Mar-16 17:59N 47°16' W 122°26'5 9.9
2018-Mar-16 17:30N 47°20' W 122°28'5 1.7
2018-Mar-16 14:32N 47°15' W 122°26'0 5.0
2018-Mar-16 14:28N 47°16' W 122°26'3 5.9
2018-Mar-16 14:00N 47°18' W 122°27'2 4.5
2018-Mar-16 13:30N 47°20' W 122°29'4 8.9
2018-Mar-16 13:00N 47°16' W 122°27'1 0.1
2018-Mar-15 22:29N 47°15' W 122°26'1 0.7
2018-Mar-15 20:19N 47°17' W 122°26'1 0.6
2018-Mar-15 18:11N 47°15' W 122°26'1 6.9
2018-Mar-15 18:00N 47°16' W 122°27'0 0.2
2018-Mar-15 17:28N 47°16' W 122°27'1 2.1
2018-Mar-15 17:00N 47°17' W 122°26'1 0.7
2018-Mar-15 14:57N 47°16' W 122°26'1 3.0
2018-Mar-15 14:30N 47°17' W 122°26'1 0.1
2018-Mar-14 23:28N 47°16' W 122°26'1 2.1
2018-Mar-14 23:01N 47°17' W 122°26'1 0.3
2018-Mar-14 21:16N 47°17' W 122°26'  
Track history (hours):
 
Tides and Currents Weather Stations Pressure Air Temp Water Temp Dewpoint Dewpoint Depression Visibility Wind Speed Wind Dir Waves Ship Positions

Swift Arrow

Owner: ARROW LAUNCH SERVICE INC, Port Angeles, WA. More information available from US FCC via Universal Licensing System and Coast Guard Vessel Documentation Center.

Last reported at 2018-Mar-24 20:12 UTC. Time now 2018-Apr-22 04:48 UTC.
Position N 47°16' W 122°26'.
Warning: this ship's position is 28 days out of date.

Type: Port tender. MMSI: 369021000.

Date/timePositionNaut miles runAvg speedWind from/ knotsBaromVisibWave heightAir tempDewpointWater temp
2018-Mar-24 20:12N 47°16' W 122°26'312.9
2018-Mar-24 19:59N 47°18' W 122°27'2 4.4
2018-Mar-24 19:30N 47°20' W 122°29'0 0.1
2018-Mar-24 18:58N 47°20' W 122°29'0 0.2
2018-Mar-24 18:24N 47°20' W 122°29'0 0.5
2018-Mar-24 17:57N 47°20' W 122°28'3 6.8
2018-Mar-24 17:30N 47°17' W 122°27'2 0.1
2018-Mar-23 23:03N 47°16' W 122°26'010.2
2018-Mar-23 23:00N 47°16' W 122°26'  
2018-Mar-21 17:58N 47°15' W 122°26'2 3.6
2018-Mar-21 17:30N 47°17' W 122°26'2 1.8
2018-Mar-21 16:36N 47°15' W 122°26'0 0.3
2018-Mar-21 15:58N 47°16' W 122°26'1 3.0
2018-Mar-21 15:30N 47°17' W 122°26'1 2.7
2018-Mar-21 15:00N 47°16' W 122°26'0 0.0
2018-Mar-19 23:07N 47°15' W 122°26'1 7.3
2018-Mar-19 23:00N 47°16' W 122°26'3 6.5
2018-Mar-19 22:30N 47°18' W 122°30'1 2.6
2018-Mar-19 22:01N 47°17' W 122°29'3 0.4
2018-Mar-19 14:42N 47°15' W 122°26'2 7.6
2018-Mar-19 14:29N 47°17' W 122°26'2 0.1
2018-Mar-19 02:33N 47°15' W 122°26'0 5.0
2018-Mar-19 02:29N 47°16' W 122°26'3 5.4
2018-Mar-19 02:01N 47°18' W 122°28'3 1.9
2018-Mar-19 00:32N 47°16' W 122°25'0 0.9
2018-Mar-19 00:29N 47°17' W 122°25'1 1.0
2018-Mar-18 23:46N 47°17' W 122°26'1 3.3
2018-Mar-18 23:30N 47°16' W 122°26'1 0.0
2018-Mar-16 20:31N 47°15' W 122°26'0 6.1
2018-Mar-16 20:29N 47°15' W 122°26'510.6
2018-Mar-16 20:01N 47°20' W 122°29'510.6
2018-Mar-16 19:30N 47°15' W 122°26'510.5
2018-Mar-16 19:00N 47°20' W 122°29'5 9.5
2018-Mar-16 18:31N 47°16' W 122°26'0 0.1
2018-Mar-16 17:59N 47°16' W 122°26'5 9.9
2018-Mar-16 17:30N 47°20' W 122°28'5 1.7
2018-Mar-16 14:32N 47°15' W 122°26'0 5.0
2018-Mar-16 14:28N 47°16' W 122°26'3 5.9
2018-Mar-16 14:00N 47°18' W 122°27'2 4.5
2018-Mar-16 13:30N 47°20' W 122°29'4 8.9
2018-Mar-16 13:00N 47°16' W 122°27'1 0.1
2018-Mar-15 22:29N 47°15' W 122°26'1 0.7
2018-Mar-15 20:19N 47°17' W 122°26'1 0.6
2018-Mar-15 18:11N 47°15' W 122°26'1 6.9
2018-Mar-15 18:00N 47°16' W 122°27'0 0.2
2018-Mar-15 17:28N 47°16' W 122°27'1 2.1
2018-Mar-15 17:00N 47°17' W 122°26'1 0.7
2018-Mar-15 14:57N 47°16' W 122°26'1 3.0
2018-Mar-15 14:30N 47°17' W 122°26'1 0.1
2018-Mar-14 23:28N 47°16' W 122°26'1 2.1
2018-Mar-14 23:01N 47°17' W 122°26'1 0.3
2018-Mar-14 21:16N 47°17' W 122°26'  

Dump ship's entire track history